sensor_id;sensor_type;location;lat;lon;timestamp;pressure;altitude;pressure_sealevel;temperature;humidity
14134;BME280;7147;59.364;18.018;2022-10-26T00:00:03;29124.06;;;-143.32;29.69
14134;BME280;7147;59.364;18.018;2022-10-26T00:02:31;24921.38;;;-143.32;29.70
14134;BME280;7147;59.364;18.018;2022-10-26T00:05:00;24539.03;;;-143.32;29.70
14134;BME280;7147;59.364;18.018;2022-10-26T00:07:27;24997.88;;;-143.32;29.70
14134;BME280;7147;59.364;18.018;2022-10-26T00:09:54;26244.50;;;-143.32;29.69
14134;BME280;7147;59.364;18.018;2022-10-26T00:12:21;27530.91;;;-143.32;29.69
14134;BME280;7147;59.364;18.018;2022-10-26T00:14:48;28056.34;;;-143.32;29.69
14134;BME280;7147;59.364;18.018;2022-10-26T00:17:15;27655.00;;;-143.32;29.71
14134;BME280;7147;59.364;18.018;2022-10-26T00:19:41;34434.63;;;-143.32;29.70
14134;BME280;7147;59.364;18.018;2022-10-26T00:22:09;33700.91;;;-143.32;29.69
14134;BME280;7147;59.364;18.018;2022-10-26T00:24:36;45634.19;;;-143.32;29.69
14134;BME280;7147;59.364;18.018;2022-10-26T00:27:03;25254.19;;;-143.32;29.68
14134;BME280;7147;59.364;18.018;2022-10-26T00:29:30;24681.63;;;-143.32;29.72
14134;BME280;7147;59.364;18.018;2022-10-26T00:31:56;23981.06;;;-143.32;29.71
14134;BME280;7147;59.364;18.018;2022-10-26T00:34:23;24644.44;;;-143.32;29.69
14134;BME280;7147;59.364;18.018;2022-10-26T00:36:50;27981.88;;;-143.32;29.71
14134;BME280;7147;59.364;18.018;2022-10-26T00:39:19;28598.44;;;-143.32;29.72
14134;BME280;7147;59.364;18.018;2022-10-26T00:41:46;26825.59;;;-143.32;29.74
14134;BME280;7147;59.364;18.018;2022-10-26T00:47:16;27640.53;;;-143.32;29.76
14134;BME280;7147;59.364;18.018;2022-10-26T00:49:46;28983.34;;;-143.32;29.77
14134;BME280;7147;59.364;18.018;2022-10-26T00:52:17;35570.72;;;-143.32;29.81
14134;BME280;7147;59.364;18.018;2022-10-26T00:54:46;42243.81;;;-143.32;29.84
14134;BME280;7147;59.364;18.018;2022-10-26T00:57:14;41867.78;;;-143.32;29.85
14134;BME280;7147;59.364;18.018;2022-10-26T00:59:41;36802.63;;;-143.32;29.77
14134;BME280;7147;59.364;18.018;2022-10-26T01:02:09;38848.53;;;-143.32;29.74
14134;BME280;7147;59.364;18.018;2022-10-26T01:04:36;47038.34;;;-143.32;29.79
14134;BME280;7147;59.364;18.018;2022-10-26T01:07:04;93108.03;;;-143.32;29.83
14134;BME280;7147;59.364;18.018;2022-10-26T01:09:31;93578.34;;;-143.32;29.83
14134;BME280;7147;59.364;18.018;2022-10-26T01:12:00;91819.78;;;-143.32;29.82
14134;BME280;7147;59.364;18.018;2022-10-26T01:14:27;122032.66;;;-143.32;29.82
14134;BME280;7147;59.364;18.018;2022-10-26T01:17:01;122032.66;;;-143.32;29.88
14134;BME280;7147;59.364;18.018;2022-10-26T01:20:01;122032.66;;;-143.32;29.88
14134;BME280;7147;59.364;18.018;2022-10-26T01:22:35;122032.66;;;-143.32;29.89
14134;BME280;7147;59.364;18.018;2022-10-26T01:25:15;122032.66;;;-143.32;29.88
14134;BME280;7147;59.364;18.018;2022-10-26T01:27:50;122032.66;;;-143.32;29.88
14134;BME280;7147;59.364;18.018;2022-10-26T01:30:22;122032.66;;;-143.32;29.90
14134;BME280;7147;59.364;18.018;2022-10-26T01:33:06;122032.66;;;-143.32;29.94
14134;BME280;7147;59.364;18.018;2022-10-26T01:35:38;122032.66;;;-143.32;29.96
14134;BME280;7147;59.364;18.018;2022-10-26T01:38:12;122032.66;;;-143.32;29.95
14134;BME280;7147;59.364;18.018;2022-10-26T01:40:44;122032.66;;;-143.32;30.00
14134;BME280;7147;59.364;18.018;2022-10-26T01:43:15;122032.66;;;-143.32;30.04
14134;BME280;7147;59.364;18.018;2022-10-26T01:45:46;122032.66;;;-143.32;30.00
14134;BME280;7147;59.364;18.018;2022-10-26T01:48:17;122032.66;;;-143.32;30.05
14134;BME280;7147;59.364;18.018;2022-10-26T01:50:46;122032.66;;;-143.32;30.09
14134;BME280;7147;59.364;18.018;2022-10-26T01:53:15;122032.66;;;-143.32;30.13
14134;BME280;7147;59.364;18.018;2022-10-26T01:55:49;122032.66;;;-143.32;30.10
14134;BME280;7147;59.364;18.018;2022-10-26T01:58:26;122032.66;;;-143.32;30.16
14134;BME280;7147;59.364;18.018;2022-10-26T02:01:07;122032.66;;;-143.32;30.09
14134;BME280;7147;59.364;18.018;2022-10-26T02:03:44;122032.66;;;-143.32;30.17
14134;BME280;7147;59.364;18.018;2022-10-26T02:06:18;122032.66;;;-143.32;30.14
14134;BME280;7147;59.364;18.018;2022-10-26T02:09:01;122032.66;;;-143.32;30.30
14134;BME280;7147;59.364;18.018;2022-10-26T02:11:37;122032.66;;;-143.32;30.26
14134;BME280;7147;59.364;18.018;2022-10-26T02:14:13;122032.66;;;-143.32;30.25
14134;BME280;7147;59.364;18.018;2022-10-26T02:16:50;122032.66;;;-143.32;30.40
14134;BME280;7147;59.364;18.018;2022-10-26T02:19:26;122032.66;;;-143.32;30.44
14134;BME280;7147;59.364;18.018;2022-10-26T02:22:00;122032.66;;;-143.32;30.36
14134;BME280;7147;59.364;18.018;2022-10-26T02:24:29;122032.66;;;-143.32;30.49
14134;BME280;7147;59.364;18.018;2022-10-26T02:27:00;122032.66;;;-143.32;30.49
14134;BME280;7147;59.364;18.018;2022-10-26T02:29:29;122032.66;;;-143.32;30.59
14134;BME280;7147;59.364;18.018;2022-10-26T02:32:00;122032.66;;;-143.32;30.56
14134;BME280;7147;59.364;18.018;2022-10-26T02:34:29;122032.66;;;-143.32;30.75
14134;BME280;7147;59.364;18.018;2022-10-26T02:36:59;122032.66;;;-143.32;31.08
14134;BME280;7147;59.364;18.018;2022-10-26T02:39:30;122032.66;;;-143.32;30.78
14134;BME280;7147;59.364;18.018;2022-10-26T02:42:00;122032.66;;;-143.32;30.81
14134;BME280;7147;59.364;18.018;2022-10-26T02:44:30;122032.66;;;-143.32;30.95
14134;BME280;7147;59.364;18.018;2022-10-26T02:47:00;122032.66;;;-143.32;30.78
14134;BME280;7147;59.364;18.018;2022-10-26T02:49:27;122032.66;;;-143.32;30.96
14134;BME280;7147;59.364;18.018;2022-10-26T02:52:00;122032.66;;;-143.32;30.87
14134;BME280;7147;59.364;18.018;2022-10-26T02:54:32;122032.66;;;-143.32;30.75
14134;BME280;7147;59.364;18.018;2022-10-26T02:57:04;122032.66;;;-143.32;30.92
14134;BME280;7147;59.364;18.018;2022-10-26T02:59:35;122032.66;;;-143.32;31.08
14134;BME280;7147;59.364;18.018;2022-10-26T03:02:05;122032.66;;;-143.32;31.10
14134;BME280;7147;59.364;18.018;2022-10-26T03:04:33;122032.66;;;-143.32;31.33
14134;BME280;7147;59.364;18.018;2022-10-26T03:07:01;122032.66;;;-143.32;31.79
14134;BME280;7147;59.364;18.018;2022-10-26T03:09:27;122032.66;;;-143.32;31.69
14134;BME280;7147;59.364;18.018;2022-10-26T03:11:54;122032.66;;;-143.32;31.47
14134;BME280;7147;59.364;18.018;2022-10-26T03:14:21;122032.66;;;-143.32;31.93
14134;BME280;7147;59.364;18.018;2022-10-26T03:16:48;122032.66;;;-143.32;32.00
14134;BME280;7147;59.364;18.018;2022-10-26T03:19:16;122032.66;;;-143.32;32.02
14134;BME280;7147;59.364;18.018;2022-10-26T03:21:43;122032.66;;;-143.32;32.03
14134;BME280;7147;59.364;18.018;2022-10-26T03:24:10;122032.66;;;-143.32;31.85
14134;BME280;7147;59.364;18.018;2022-10-26T03:26:37;122032.66;;;-143.32;32.07
14134;BME280;7147;59.364;18.018;2022-10-26T03:29:03;122032.66;;;-143.32;31.69
14134;BME280;7147;59.364;18.018;2022-10-26T03:31:30;122032.66;;;-143.32;31.30
14134;BME280;7147;59.364;18.018;2022-10-26T03:33:57;122032.66;;;-143.32;31.32
14134;BME280;7147;59.364;18.018;2022-10-26T03:36:25;122032.66;;;-143.32;31.20
14134;BME280;7147;59.364;18.018;2022-10-26T03:38:52;122032.66;;;-143.32;31.30
14134;BME280;7147;59.364;18.018;2022-10-26T03:41:19;122032.66;;;-143.32;31.36
14134;BME280;7147;59.364;18.018;2022-10-26T03:43:45;122032.66;;;-143.32;31.27
14134;BME280;7147;59.364;18.018;2022-10-26T03:46:13;122032.66;;;-143.32;31.30
14134;BME280;7147;59.364;18.018;2022-10-26T03:48:40;122032.66;;;-143.32;31.52
14134;BME280;7147;59.364;18.018;2022-10-26T03:51:06;122032.66;;;-143.32;31.44
14134;BME280;7147;59.364;18.018;2022-10-26T03:53:35;122032.66;;;-143.32;31.47
14134;BME280;7147;59.364;18.018;2022-10-26T03:56:01;122032.66;;;-143.32;31.56
14134;BME280;7147;59.364;18.018;2022-10-26T03:58:28;122032.66;;;-143.32;32.21
14134;BME280;7147;59.364;18.018;2022-10-26T04:00:55;122032.66;;;-143.32;32.06
14134;BME280;7147;59.364;18.018;2022-10-26T04:03:22;122032.66;;;-143.32;31.95
14134;BME280;7147;59.364;18.018;2022-10-26T04:05:48;122032.66;;;-143.32;32.07
14134;BME280;7147;59.364;18.018;2022-10-26T04:08:15;122032.66;;;-143.32;32.29
14134;BME280;7147;59.364;18.018;2022-10-26T04:10:44;122032.66;;;-143.32;32.23
14134;BME280;7147;59.364;18.018;2022-10-26T04:13:11;122032.66;;;-143.32;32.22
14134;BME280;7147;59.364;18.018;2022-10-26T04:15:38;122032.66;;;-143.32;32.26
14134;BME280;7147;59.364;18.018;2022-10-26T04:18:05;122032.66;;;-143.32;32.26
14134;BME280;7147;59.364;18.018;2022-10-26T04:20:32;122032.66;;;-143.32;32.18
14134;BME280;7147;59.364;18.018;2022-10-26T04:23:02;122032.66;;;-143.32;32.14
14134;BME280;7147;59.364;18.018;2022-10-26T04:25:30;122032.66;;;-143.32;32.07
14134;BME280;7147;59.364;18.018;2022-10-26T04:27:59;122032.66;;;-143.32;32.38
14134;BME280;7147;59.364;18.018;2022-10-26T04:30:25;122032.66;;;-143.32;32.32
14134;BME280;7147;59.364;18.018;2022-10-26T04:32:52;122032.66;;;-143.32;32.25
14134;BME280;7147;59.364;18.018;2022-10-26T04:35:19;122032.66;;;-143.32;32.06
14134;BME280;7147;59.364;18.018;2022-10-26T04:37:46;122032.66;;;-143.32;32.26
14134;BME280;7147;59.364;18.018;2022-10-26T04:40:13;122032.66;;;-143.32;32.14
14134;BME280;7147;59.364;18.018;2022-10-26T04:42:41;122032.66;;;-143.32;32.28
14134;BME280;7147;59.364;18.018;2022-10-26T04:45:10;122032.66;;;-143.32;32.18
14134;BME280;7147;59.364;18.018;2022-10-26T04:47:37;122032.66;;;-143.32;32.41
14134;BME280;7147;59.364;18.018;2022-10-26T04:50:05;122032.66;;;-143.32;32.35
14134;BME280;7147;59.364;18.018;2022-10-26T04:52:32;122032.66;;;-143.32;32.28
14134;BME280;7147;59.364;18.018;2022-10-26T04:54:59;122032.66;;;-143.32;32.57
14134;BME280;7147;59.364;18.018;2022-10-26T04:57:26;122032.66;;;-143.32;32.37
14134;BME280;7147;59.364;18.018;2022-10-26T04:59:53;122032.66;;;-143.32;32.49
14134;BME280;7147;59.364;18.018;2022-10-26T05:02:21;122032.66;;;-143.32;32.48
14134;BME280;7147;59.364;18.018;2022-10-26T05:04:48;122032.66;;;-143.32;32.27
14134;BME280;7147;59.364;18.018;2022-10-26T05:07:15;122032.66;;;-143.32;32.07
14134;BME280;7147;59.364;18.018;2022-10-26T05:09:42;122032.66;;;-143.32;32.79
14134;BME280;7147;59.364;18.018;2022-10-26T05:12:08;122032.66;;;-143.32;33.34
14134;BME280;7147;59.364;18.018;2022-10-26T05:14:35;122032.66;;;-143.32;33.18
14134;BME280;7147;59.364;18.018;2022-10-26T05:17:02;122032.66;;;-143.32;33.14
14134;BME280;7147;59.364;18.018;2022-10-26T05:19:30;122032.66;;;-143.32;32.94
14134;BME280;7147;59.364;18.018;2022-10-26T05:21:57;122032.66;;;-143.32;32.51
14134;BME280;7147;59.364;18.018;2022-10-26T05:24:24;122032.66;;;-143.32;32.47
14134;BME280;7147;59.364;18.018;2022-10-26T05:26:50;122032.66;;;-143.32;32.26
14134;BME280;7147;59.364;18.018;2022-10-26T05:29:17;122032.66;;;-143.32;32.04
14134;BME280;7147;59.364;18.018;2022-10-26T05:31:44;122032.66;;;-143.32;32.07
14134;BME280;7147;59.364;18.018;2022-10-26T05:34:10;122032.66;;;-143.32;32.09
14134;BME280;7147;59.364;18.018;2022-10-26T05:36:39;122032.66;;;-143.32;32.26
14134;BME280;7147;59.364;18.018;2022-10-26T05:39:06;122032.66;;;-143.32;32.12
14134;BME280;7147;59.364;18.018;2022-10-26T05:41:32;122032.66;;;-143.32;32.02
14134;BME280;7147;59.364;18.018;2022-10-26T05:43:59;121126.94;;;-143.32;32.05
14134;BME280;7147;59.364;18.018;2022-10-26T05:46:26;121131.19;;;-143.32;32.19
14134;BME280;7147;59.364;18.018;2022-10-26T05:48:53;103594.34;;;-143.32;31.76
14134;BME280;7147;59.364;18.018;2022-10-26T05:51:20;117593.44;;;-143.32;31.69
14134;BME280;7147;59.364;18.018;2022-10-26T05:53:50;122032.66;;;-143.32;32.01
14134;BME280;7147;59.364;18.018;2022-10-26T05:56:20;122032.66;;;-143.32;31.96
14134;BME280;7147;59.364;18.018;2022-10-26T05:58:56;122032.66;;;-143.32;32.34
14134;BME280;7147;59.364;18.018;2022-10-26T06:01:31;122032.66;;;-143.32;32.21
14134;BME280;7147;59.364;18.018;2022-10-26T06:04:09;122032.66;;;-143.32;32.12
14134;BME280;7147;59.364;18.018;2022-10-26T06:06:43;122032.66;;;-143.32;32.26
14134;BME280;7147;59.364;18.018;2022-10-26T06:09:13;122032.66;;;-143.32;32.12
14134;BME280;7147;59.364;18.018;2022-10-26T06:11:41;122032.66;;;-143.32;32.00
14134;BME280;7147;59.364;18.018;2022-10-26T06:14:08;122032.66;;;-143.32;32.37
14134;BME280;7147;59.364;18.018;2022-10-26T06:16:45;122032.66;;;-143.32;32.25
14134;BME280;7147;59.364;18.018;2022-10-26T06:19:23;122032.66;;;-143.32;32.10
14134;BME280;7147;59.364;18.018;2022-10-26T06:22:01;122032.66;;;-143.32;32.08
14134;BME280;7147;59.364;18.018;2022-10-26T06:24:35;122032.66;;;-143.32;32.07
14134;BME280;7147;59.364;18.018;2022-10-26T06:27:13;122032.66;;;-143.32;32.55
14134;BME280;7147;59.364;18.018;2022-10-26T06:29:48;122032.66;;;-143.32;32.54
14134;BME280;7147;59.364;18.018;2022-10-26T06:32:21;122032.66;;;-143.32;32.80
14134;BME280;7147;59.364;18.018;2022-10-26T06:34:50;122032.66;;;-143.32;32.80
14134;BME280;7147;59.364;18.018;2022-10-26T06:37:18;122032.66;;;-143.32;32.98
14134;BME280;7147;59.364;18.018;2022-10-26T06:39:49;122032.66;;;-143.32;32.86
14134;BME280;7147;59.364;18.018;2022-10-26T06:42:16;122032.66;;;-143.32;32.90
14134;BME280;7147;59.364;18.018;2022-10-26T06:44:45;122032.66;;;-143.32;33.04
14134;BME280;7147;59.364;18.018;2022-10-26T06:47:17;122032.66;;;-143.32;32.87
14134;BME280;7147;59.364;18.018;2022-10-26T06:49:56;122032.66;;;-143.32;32.67
14134;BME280;7147;59.364;18.018;2022-10-26T06:52:30;122032.66;;;-143.32;32.75
14134;BME280;7147;59.364;18.018;2022-10-26T06:55:01;122032.66;;;-143.32;33.27
14134;BME280;7147;59.364;18.018;2022-10-26T06:57:33;122032.66;;;-143.32;33.25
14134;BME280;7147;59.364;18.018;2022-10-26T07:00:03;122032.66;;;-143.32;33.26
14134;BME280;7147;59.364;18.018;2022-10-26T07:02:31;122032.66;;;-143.32;33.35
14134;BME280;7147;59.364;18.018;2022-10-26T07:04:58;122032.66;;;-143.32;33.46
14134;BME280;7147;59.364;18.018;2022-10-26T07:07:26;122032.66;;;-143.32;34.15
14134;BME280;7147;59.364;18.018;2022-10-26T07:09:54;122032.66;;;-143.32;34.23
14134;BME280;7147;59.364;18.018;2022-10-26T07:12:22;122032.66;;;-143.32;33.97
14134;BME280;7147;59.364;18.018;2022-10-26T07:14:49;122032.66;;;-143.32;33.72
14134;BME280;7147;59.364;18.018;2022-10-26T07:17:16;122032.66;;;-143.32;33.82
14134;BME280;7147;59.364;18.018;2022-10-26T07:19:42;122032.66;;;-143.32;34.04
14134;BME280;7147;59.364;18.018;2022-10-26T07:22:10;122032.66;;;-143.32;34.15
14134;BME280;7147;59.364;18.018;2022-10-26T07:24:37;122032.66;;;-143.32;34.36
14134;BME280;7147;59.364;18.018;2022-10-26T07:27:03;122032.66;;;-143.32;34.18
14134;BME280;7147;59.364;18.018;2022-10-26T07:29:32;122032.66;;;-143.32;34.27
14134;BME280;7147;59.364;18.018;2022-10-26T07:31:59;122032.66;;;-143.32;35.11
14134;BME280;7147;59.364;18.018;2022-10-26T07:34:26;122032.66;;;-143.32;34.96
14134;BME280;7147;59.364;18.018;2022-10-26T07:36:53;122032.66;;;-143.32;35.22
14134;BME280;7147;59.364;18.018;2022-10-26T07:39:20;122032.66;;;-143.32;35.77
14134;BME280;7147;59.364;18.018;2022-10-26T07:41:46;122032.66;;;-143.32;35.46
14134;BME280;7147;59.364;18.018;2022-10-26T07:44:13;122032.66;;;-143.32;35.29
14134;BME280;7147;59.364;18.018;2022-10-26T07:46:41;122032.66;;;-143.32;35.79
14134;BME280;7147;59.364;18.018;2022-10-26T07:49:08;122032.66;;;-143.32;35.34
14134;BME280;7147;59.364;18.018;2022-10-26T07:51:35;122032.66;;;-143.32;35.41
14134;BME280;7147;59.364;18.018;2022-10-26T07:54:02;122032.66;;;-143.32;35.76
14134;BME280;7147;59.364;18.018;2022-10-26T07:56:29;122032.66;;;-143.32;36.07
14134;BME280;7147;59.364;18.018;2022-10-26T07:58:56;122032.66;;;-143.32;35.96
14134;BME280;7147;59.364;18.018;2022-10-26T08:01:23;122032.66;;;-143.32;36.16
14134;BME280;7147;59.364;18.018;2022-10-26T08:03:52;122032.66;;;-143.32;35.76
14134;BME280;7147;59.364;18.018;2022-10-26T08:06:19;122032.66;;;-143.32;35.84
14134;BME280;7147;59.364;18.018;2022-10-26T08:08:46;122032.66;;;-143.32;36.10
14134;BME280;7147;59.364;18.018;2022-10-26T08:11:13;122032.66;;;-143.32;36.31
14134;BME280;7147;59.364;18.018;2022-10-26T08:13:41;122032.66;;;-143.32;36.67
14134;BME280;7147;59.364;18.018;2022-10-26T08:16:08;122032.66;;;-143.32;36.32
14134;BME280;7147;59.364;18.018;2022-10-26T08:18:35;122032.66;;;-143.32;36.00
14134;BME280;7147;59.364;18.018;2022-10-26T08:21:05;122032.66;;;-143.32;36.28
14134;BME280;7147;59.364;18.018;2022-10-26T08:23:32;122032.66;;;-143.32;36.03
14134;BME280;7147;59.364;18.018;2022-10-26T08:25:59;122032.66;;;-143.32;36.56
14134;BME280;7147;59.364;18.018;2022-10-26T08:28:26;122032.66;;;-143.32;36.07
14134;BME280;7147;59.364;18.018;2022-10-26T08:30:53;122032.66;;;-143.32;36.54
14134;BME280;7147;59.364;18.018;2022-10-26T08:33:21;122032.66;;;-143.32;36.74
14134;BME280;7147;59.364;18.018;2022-10-26T08:35:49;122032.66;;;-143.32;36.97
14134;BME280;7147;59.364;18.018;2022-10-26T08:38:21;122032.66;;;-143.32;37.06
14134;BME280;7147;59.364;18.018;2022-10-26T08:40:48;122032.66;;;-143.32;36.83
14134;BME280;7147;59.364;18.018;2022-10-26T08:43:19;122032.66;;;-143.32;36.29
14134;BME280;7147;59.364;18.018;2022-10-26T08:45:50;122032.66;;;-143.32;35.96
14134;BME280;7147;59.364;18.018;2022-10-26T08:48:22;122032.66;;;-143.32;36.16
14134;BME280;7147;59.364;18.018;2022-10-26T08:50:52;122032.66;;;-143.32;36.49
14134;BME280;7147;59.364;18.018;2022-10-26T08:53:26;122032.66;;;-143.32;35.98
14134;BME280;7147;59.364;18.018;2022-10-26T08:55:58;122032.66;;;-143.32;35.69
14134;BME280;7147;59.364;18.018;2022-10-26T08:58:29;122032.66;;;-143.32;36.42
14134;BME280;7147;59.364;18.018;2022-10-26T09:00:58;122032.66;;;-143.32;35.92
14134;BME280;7147;59.364;18.018;2022-10-26T09:03:25;122032.66;;;-143.32;35.65
14134;BME280;7147;59.364;18.018;2022-10-26T09:06:02;122032.66;;;-143.32;35.86
14134;BME280;7147;59.364;18.018;2022-10-26T09:08:41;122032.66;;;-143.32;36.00
14134;BME280;7147;59.364;18.018;2022-10-26T09:11:17;122032.66;;;-143.32;35.29
14134;BME280;7147;59.364;18.018;2022-10-26T09:13:54;122032.66;;;-143.32;36.24
14134;BME280;7147;59.364;18.018;2022-10-26T09:16:27;122032.66;;;-143.32;35.58
14134;BME280;7147;59.364;18.018;2022-10-26T09:19:13;122032.66;;;-143.32;35.55
14134;BME280;7147;59.364;18.018;2022-10-26T09:21:51;122032.66;;;-143.32;35.86
14134;BME280;7147;59.364;18.018;2022-10-26T09:24:29;122032.66;;;-143.32;35.53
14134;BME280;7147;59.364;18.018;2022-10-26T09:27:02;122032.66;;;-143.32;35.76
14134;BME280;7147;59.364;18.018;2022-10-26T09:29:34;122032.66;;;-143.32;35.52
14134;BME280;7147;59.364;18.018;2022-10-26T09:32:03;122032.66;;;-143.32;36.18
14134;BME280;7147;59.364;18.018;2022-10-26T09:34:37;122032.66;;;-143.32;36.76
14134;BME280;7147;59.364;18.018;2022-10-26T09:37:12;122032.66;;;-143.32;36.66
14134;BME280;7147;59.364;18.018;2022-10-26T09:39:47;122032.66;;;-143.32;37.05
14134;BME280;7147;59.364;18.018;2022-10-26T09:42:20;122032.66;;;-143.32;36.38
14134;BME280;7147;59.364;18.018;2022-10-26T09:44:51;122032.66;;;-143.32;36.24
14134;BME280;7147;59.364;18.018;2022-10-26T09:47:28;122032.66;;;-143.32;38.55
14134;BME280;7147;59.364;18.018;2022-10-26T09:50:03;122032.66;;;-143.32;38.76
14134;BME280;7147;59.364;18.018;2022-10-26T09:52:32;122032.66;;;-143.32;38.83
14134;BME280;7147;59.364;18.018;2022-10-26T09:55:00;122032.66;;;-143.32;38.70
14134;BME280;7147;59.364;18.018;2022-10-26T09:57:27;122032.66;;;-143.32;38.19
14134;BME280;7147;59.364;18.018;2022-10-26T09:59:54;122032.66;;;-143.32;38.36
14134;BME280;7147;59.364;18.018;2022-10-26T10:02:34;122032.66;;;-143.32;37.75
14134;BME280;7147;59.364;18.018;2022-10-26T10:05:02;122032.66;;;-143.32;38.06
14134;BME280;7147;59.364;18.018;2022-10-26T10:07:29;122032.66;;;-143.32;37.92
14134;BME280;7147;59.364;18.018;2022-10-26T10:10:08;122032.66;;;-143.32;38.47
14134;BME280;7147;59.364;18.018;2022-10-26T10:12:40;122032.66;;;-143.32;38.00
14134;BME280;7147;59.364;18.018;2022-10-26T10:15:16;122032.66;;;-143.32;36.38
14134;BME280;7147;59.364;18.018;2022-10-26T10:17:47;122032.66;;;-143.32;37.61
14134;BME280;7147;59.364;18.018;2022-10-26T10:20:18;122032.66;;;-143.32;38.52
14134;BME280;7147;59.364;18.018;2022-10-26T10:22:53;122032.66;;;-143.32;39.08
14134;BME280;7147;59.364;18.018;2022-10-26T10:25:32;122032.66;;;-143.32;39.54
14134;BME280;7147;59.364;18.018;2022-10-26T10:28:00;122032.66;;;-143.32;40.24
14134;BME280;7147;59.364;18.018;2022-10-26T10:30:29;122032.66;;;-143.32;42.18
14134;BME280;7147;59.364;18.018;2022-10-26T10:33:09;122032.66;;;-143.32;40.14
14134;BME280;7147;59.364;18.018;2022-10-26T10:35:38;122032.66;;;-143.32;40.79
14134;BME280;7147;59.364;18.018;2022-10-26T10:38:05;122032.66;;;-143.32;40.85
14134;BME280;7147;59.364;18.018;2022-10-26T10:40:33;122032.66;;;-143.32;41.35
14134;BME280;7147;59.364;18.018;2022-10-26T10:43:04;122032.66;;;-143.32;41.26
14134;BME280;7147;59.364;18.018;2022-10-26T10:45:32;122032.66;;;-143.32;41.08
14134;BME280;7147;59.364;18.018;2022-10-26T10:48:02;122032.66;;;-143.32;41.12
14134;BME280;7147;59.364;18.018;2022-10-26T10:50:32;122032.66;;;-143.32;41.26
14134;BME280;7147;59.364;18.018;2022-10-26T10:53:14;122032.66;;;-143.32;37.47
14134;BME280;7147;59.364;18.018;2022-10-26T11:01:40;122032.66;;;-143.32;42.19
14134;BME280;7147;59.364;18.018;2022-10-26T11:04:24;122032.66;;;-143.32;49.11
14134;BME280;7147;59.364;18.018;2022-10-26T11:06:56;122032.66;;;-143.32;48.66
14134;BME280;7147;59.364;18.018;2022-10-26T11:09:27;122032.66;;;-143.32;46.37
14134;BME280;7147;59.364;18.018;2022-10-26T11:12:00;122032.66;;;-143.32;44.46
14134;BME280;7147;59.364;18.018;2022-10-26T11:14:31;122032.66;;;-143.32;44.78
14134;BME280;7147;59.364;18.018;2022-10-26T11:17:03;122032.66;;;-143.32;43.94
14134;BME280;7147;59.364;18.018;2022-10-26T11:19:35;122032.66;;;-143.32;43.70
14134;BME280;7147;59.364;18.018;2022-10-26T11:22:12;122032.66;;;-143.32;45.17
14134;BME280;7147;59.364;18.018;2022-10-26T11:24:43;122032.66;;;-143.32;43.69
14134;BME280;7147;59.364;18.018;2022-10-26T11:27:15;122032.66;;;-143.32;43.10
14134;BME280;7147;59.364;18.018;2022-10-26T11:29:48;122032.66;;;-143.32;43.22
14134;BME280;7147;59.364;18.018;2022-10-26T11:32:20;122032.66;;;-143.32;41.73
14134;BME280;7147;59.364;18.018;2022-10-26T11:34:51;122032.66;;;-143.32;42.37
14134;BME280;7147;59.364;18.018;2022-10-26T11:37:24;122032.66;;;-143.32;43.00
14134;BME280;7147;59.364;18.018;2022-10-26T11:40:01;122032.66;;;-143.32;42.47
14134;BME280;7147;59.364;18.018;2022-10-26T11:42:33;122032.66;;;-143.32;43.44
14134;BME280;7147;59.364;18.018;2022-10-26T11:45:08;122032.66;;;-143.32;43.08
14134;BME280;7147;59.364;18.018;2022-10-26T11:47:40;122032.66;;;-143.32;42.67
14134;BME280;7147;59.364;18.018;2022-10-26T11:50:16;122032.66;;;-143.32;43.05
14134;BME280;7147;59.364;18.018;2022-10-26T11:52:47;122032.66;;;-143.32;42.70
14134;BME280;7147;59.364;18.018;2022-10-26T11:55:16;122032.66;;;-143.32;42.25
14134;BME280;7147;59.364;18.018;2022-10-26T11:57:45;122032.66;;;-143.32;42.57
14134;BME280;7147;59.364;18.018;2022-10-26T12:00:15;122032.66;;;-143.32;42.27
14134;BME280;7147;59.364;18.018;2022-10-26T12:02:46;122032.66;;;-143.32;41.85
14134;BME280;7147;59.364;18.018;2022-10-26T12:05:21;122032.66;;;-143.32;41.32
14134;BME280;7147;59.364;18.018;2022-10-26T12:07:51;122032.66;;;-143.32;42.04
14134;BME280;7147;59.364;18.018;2022-10-26T12:10:24;122032.66;;;-143.32;41.44
14134;BME280;7147;59.364;18.018;2022-10-26T12:12:59;122032.66;;;-143.32;42.25
14134;BME280;7147;59.364;18.018;2022-10-26T12:15:31;122032.66;;;-143.32;43.30
14134;BME280;7147;59.364;18.018;2022-10-26T12:18:08;122032.66;;;-143.32;42.91
14134;BME280;7147;59.364;18.018;2022-10-26T12:21:02;122032.66;;;-143.32;44.29
14134;BME280;7147;59.364;18.018;2022-10-26T12:23:35;122032.66;;;-143.32;44.41
14134;BME280;7147;59.364;18.018;2022-10-26T12:26:36;122032.66;;;-143.32;43.50
14134;BME280;7147;59.364;18.018;2022-10-26T12:35:44;122032.66;;;-143.32;44.82
14134;BME280;7147;59.364;18.018;2022-10-26T12:41:20;122032.66;;;-143.32;46.29
14134;BME280;7147;59.364;18.018;2022-10-26T12:43:47;122032.66;;;-143.32;45.75
14134;BME280;7147;59.364;18.018;2022-10-26T12:46:43;122032.66;;;-143.32;46.21
14134;BME280;7147;59.364;18.018;2022-10-26T12:52:31;122032.66;;;-143.32;46.90
14134;BME280;7147;59.364;18.018;2022-10-26T12:55:20;122032.66;;;-143.32;47.64
14134;BME280;7147;59.364;18.018;2022-10-26T12:58:00;122032.66;;;-143.32;47.11
14134;BME280;7147;59.364;18.018;2022-10-26T13:00:31;122032.66;;;-143.32;47.20
14134;BME280;7147;59.364;18.018;2022-10-26T13:03:08;122032.66;;;-143.32;47.82
14134;BME280;7147;59.364;18.018;2022-10-26T13:06:02;122032.66;;;-143.32;47.98
14134;BME280;7147;59.364;18.018;2022-10-26T13:08:39;122032.66;;;-143.32;47.70